Time;durP1;ratioP1;P1;durP2;ratioP2;P2;SDS_P1;SDS_P2;PMS_P1;PMS_P2;Temp;Humidity;BMP_temperature;BMP_pressure;BME280_temperature;BME280_humidity;BME280_pressure;Samples;Min_cycle;Max_cycle;Signal;HPM_P1;HPM_P2
2022/12/02 00:02:22;;;;;;;21.08;6.65;;;;;;;5.07;89.01;102146.94;5001424;28;20030;-67
2022/12/02 00:04:56;;;;;;;24.80;6.90;;;;;;;5.00;89.19;102141.91;4984975;28;20031;-67
2022/12/02 00:07:21;;;;;;;16.08;4.68;;;;;;;5.05;88.84;102149.09;4988380;28;20482;-67
2022/12/02 00:09:47;;;;;;;13.40;4.38;;;;;;;5.04;88.01;102144.81;4985958;28;20197;-67
2022/12/02 00:12:24;;;;;;;24.88;4.78;;;;;;;5.11;88.19;102145.31;4987695;28;20664;-67
2022/12/02 00:14:55;;;;;;;21.83;5.63;;;;;;;5.05;88.16;102136.53;4986824;28;20447;-67
2022/12/02 00:17:21;;;;;;;17.08;5.97;;;;;;;5.18;87.16;102133.22;4990683;28;20510;-66
2022/12/02 00:19:47;;;;;;;19.10;5.85;;;;;;;5.09;87.54;102129.56;4986791;28;20026;-67
2022/12/02 00:22:12;;;;;;;19.88;6.32;;;;;;;5.05;86.96;102128.50;4989011;28;20724;-67
2022/12/02 00:24:38;;;;;;;17.77;5.35;;;;;;;4.99;86.74;102119.00;4985148;28;20030;-67
2022/12/02 00:27:03;;;;;;;19.48;6.53;;;;;;;4.98;86.78;102121.91;4990753;28;20030;-66
2022/12/02 00:29:28;;;;;;;20.98;6.18;;;;;;;4.83;86.78;102120.19;5005335;28;20100;-66
2022/12/02 00:31:54;;;;;;;14.93;5.95;;;;;;;4.86;86.94;102124.19;5005594;28;20050;-67
2022/12/02 00:34:20;;;;;;;13.75;5.28;;;;;;;4.78;86.96;102125.56;4989744;28;20092;-66
2022/12/02 00:36:45;;;;;;;14.63;4.97;;;;;;;4.76;87.05;102117.06;4990390;28;20078;-66
2022/12/02 00:39:11;;;;;;;16.70;5.90;;;;;;;4.78;86.10;102122.88;4993742;28;20034;-66
2022/12/02 00:41:37;;;;;;;33.15;6.78;;;;;;;4.86;86.58;102127.63;4991115;28;20030;-66
2022/12/02 00:46:47;;;;;;;17.15;4.97;;;;;;;4.96;85.78;102124.06;4986328;28;20463;-66
2022/12/02 00:49:15;;;;;;;20.65;6.85;;;;;;;4.91;86.30;102111.59;4986914;28;20046;-66
2022/12/02 00:51:42;;;;;;;14.95;6.43;;;;;;;4.96;86.11;102114.19;4984658;28;20045;-67
2022/12/02 00:54:08;;;;;;;20.35;6.90;;;;;;;4.89;86.09;102110.25;4989490;28;20060;-66
2022/12/02 00:56:34;;;;;;;19.27;6.82;;;;;;;4.89;85.82;102111.06;4990961;28;20438;-66
2022/12/02 00:59:01;;;;;;;18.73;5.82;;;;;;;5.01;85.89;102106.16;4987761;28;20069;-66
2022/12/02 01:01:27;;;;;;;17.80;7.65;;;;;;;5.13;85.82;102108.44;4988396;28;20022;-67
2022/12/02 01:03:53;;;;;;;21.60;7.18;;;;;;;5.09;85.34;102115.44;5003815;28;20560;-66
2022/12/02 01:06:18;;;;;;;14.57;6.00;;;;;;;5.06;85.18;102106.09;4990035;28;20109;-67
2022/12/02 01:08:46;;;;;;;17.42;5.72;;;;;;;5.04;85.78;102110.91;4993464;28;20459;-66
2022/12/02 01:11:12;;;;;;;15.10;5.88;;;;;;;4.99;85.95;102104.84;4993760;28;20113;-67
2022/12/02 01:13:40;;;;;;;30.88;7.93;;;;;;;4.94;86.65;102105.69;4990593;28;20078;-66
2022/12/02 01:16:06;;;;;;;15.18;4.55;;;;;;;4.94;85.93;102100.34;4992215;28;20565;-67
2022/12/02 01:18:31;;;;;;;28.05;7.30;;;;;;;4.87;87.00;102104.41;4991908;28;20060;-67
2022/12/02 01:20:59;;;;;;;14.75;7.03;;;;;;;4.86;87.02;102098.28;4990678;28;20037;-66
2022/12/02 01:23:25;;;;;;;15.05;6.82;;;;;;;4.96;86.75;102103.53;4992161;28;20403;-66
2022/12/02 01:25:50;;;;;;;22.65;6.55;;;;;;;4.98;85.89;102096.03;4992013;28;20034;-66
2022/12/02 01:28:16;;;;;;;19.20;6.05;;;;;;;4.96;86.33;102097.38;4991151;28;20379;-66
2022/12/02 01:30:42;;;;;;;23.73;7.20;;;;;;;4.99;86.39;102096.84;4992127;28;20062;-66
2022/12/02 01:33:08;;;;;;;22.90;7.00;;;;;;;4.94;86.72;102095.00;4991570;28;20042;-66
2022/12/02 01:35:33;;;;;;;26.88;6.88;;;;;;;4.88;87.28;102093.44;4995568;28;20034;-66
2022/12/02 01:37:59;;;;;;;18.90;6.50;;;;;;;4.88;87.22;102090.00;4991233;28;20727;-66
2022/12/02 01:40:25;;;;;;;12.88;5.68;;;;;;;4.88;87.56;102092.69;4990868;28;20034;-66
2022/12/02 01:42:51;;;;;;;22.98;7.00;;;;;;;4.91;87.70;102081.44;4988769;28;20026;-67
2022/12/02 01:45:17;;;;;;;32.15;6.50;;;;;;;4.94;87.90;102087.00;4988646;28;20031;-67
2022/12/02 01:47:43;;;;;;;25.48;6.88;;;;;;;5.02;87.98;102090.91;5007841;28;20058;-67
2022/12/02 01:50:11;;;;;;;18.85;8.00;;;;;;;4.95;87.40;102091.28;4995790;28;20030;-66
2022/12/02 01:52:36;;;;;;;20.52;5.70;;;;;;;4.92;87.75;102094.47;4992745;28;20088;-67
2022/12/02 01:55:18;;;;;;;17.63;7.63;;;;;;;4.92;88.05;102088.34;4987961;28;20042;-66
2022/12/02 01:57:47;;;;;;;20.10;7.63;;;;;;;4.94;87.43;102084.31;4988186;28;20026;-66
2022/12/02 02:00:13;;;;;;;19.13;7.18;;;;;;;4.93;87.57;102082.75;4992355;28;20026;-66
2022/12/02 02:02:39;;;;;;;12.50;5.38;;;;;;;4.75;88.13;102088.78;4991332;28;20062;-66
2022/12/02 02:05:23;;;;;;;18.83;6.72;;;;;;;4.78;88.67;102085.53;5005772;28;20057;-67
2022/12/02 02:07:52;;;;;;;21.85;7.78;;;;;;;4.88;88.78;102082.78;5003278;28;20034;-66
2022/12/02 02:10:19;;;;;;;23.75;6.63;;;;;;;4.86;88.62;102076.91;4989292;28;20026;-66
2022/12/02 02:12:46;;;;;;;16.65;6.43;;;;;;;4.74;88.85;102071.19;5008691;28;20033;-65
2022/12/02 02:15:15;;;;;;;19.23;6.38;;;;;;;4.84;89.08;102079.06;4991836;28;20038;-66
2022/12/02 02:17:40;;;;;;;15.05;6.38;;;;;;;4.80;88.70;102072.69;4993885;28;20085;-67
2022/12/02 02:20:12;;;;;;;18.42;5.97;;;;;;;4.81;88.88;102078.84;4986172;28;20034;-65
2022/12/02 02:22:40;;;;;;;18.17;6.57;;;;;;;4.69;88.93;102081.06;4990933;28;20670;-67
2022/12/02 02:25:12;;;;;;;17.27;6.53;;;;;;;4.79;89.29;102084.47;4989757;28;20478;-67
2022/12/02 02:27:38;;;;;;;16.67;7.45;;;;;;;4.84;88.94;102073.75;4996179;28;20027;-67
2022/12/02 02:30:04;;;;;;;16.80;6.63;;;;;;;4.88;88.87;102080.09;5007493;28;20038;-66
2022/12/02 02:32:30;;;;;;;22.05;6.80;;;;;;;4.90;88.20;102067.28;4991612;28;20050;-66
2022/12/02 02:34:56;;;;;;;18.92;6.93;;;;;;;4.82;88.43;102065.22;5007552;28;20030;-66
2022/12/02 02:37:21;;;;;;;18.40;6.47;;;;;;;4.79;89.21;102076.47;4990074;28;20038;-66
2022/12/02 02:39:47;;;;;;;19.90;7.15;;;;;;;4.67;88.96;102069.88;4990336;28;20062;-66
2022/12/02 02:42:14;;;;;;;17.45;7.13;;;;;;;4.76;89.34;102076.22;4973597;28;20042;-67
2022/12/02 02:44:40;;;;;;;15.85;7.28;;;;;;;4.76;89.10;102071.69;4997957;28;20038;-66
2022/12/02 02:47:09;;;;;;;15.82;5.95;;;;;;;4.83;88.71;102074.03;5001875;28;20030;-67
2022/12/02 02:49:35;;;;;;;22.27;6.95;;;;;;;4.78;88.98;102074.84;4990032;28;20031;-66
2022/12/02 02:52:00;;;;;;;16.02;5.57;;;;;;;4.84;88.82;102068.41;5004172;28;20034;-67
2022/12/02 02:54:26;;;;;;;18.58;6.95;;;;;;;4.80;88.35;102067.38;5004397;28;20039;-66
2022/12/02 02:56:53;;;;;;;16.42;6.28;;;;;;;4.77;88.64;102067.13;5005719;28;20056;-66
2022/12/02 02:59:18;;;;;;;16.85;5.78;;;;;;;4.75;89.18;102070.09;5003119;28;20065;-66
2022/12/02 03:01:48;;;;;;;16.35;6.72;;;;;;;4.72;89.11;102064.53;5005693;28;20113;-67
2022/12/02 03:04:16;;;;;;;18.90;7.72;;;;;;;4.65;89.32;102064.84;5005270;28;20034;-66
2022/12/02 03:06:43;;;;;;;18.33;5.82;;;;;;;4.71;89.77;102063.72;4990345;28;20041;-67
2022/12/02 03:09:13;;;;;;;15.52;6.25;;;;;;;4.75;89.81;102067.41;4986361;28;20439;-66
2022/12/02 03:11:40;;;;;;;15.98;5.78;;;;;;;4.76;89.04;102068.22;4988683;28;20045;-66
2022/12/02 03:14:08;;;;;;;22.77;6.93;;;;;;;4.75;89.50;102064.75;4989313;28;20399;-67
2022/12/02 03:16:34;;;;;;;13.32;5.68;;;;;;;4.66;89.63;102066.44;5001833;28;20050;-66
2022/12/02 03:19:00;;;;;;;18.38;6.72;;;;;;;4.61;90.51;102063.81;5004321;28;20030;-66
2022/12/02 03:21:27;;;;;;;14.95;6.03;;;;;;;4.58;90.72;102061.72;4989686;28;20589;-67
2022/12/02 03:23:57;;;;;;;20.88;6.15;;;;;;;4.63;90.17;102060.88;5003664;28;20034;-66
2022/12/02 03:26:23;;;;;;;15.75;5.90;;;;;;;4.66;90.41;102058.44;5003731;28;20376;-66
2022/12/02 03:28:49;;;;;;;15.20;7.00;;;;;;;4.67;89.77;102057.34;4990034;28;20041;-66
2022/12/02 03:31:15;;;;;;;21.27;6.05;;;;;;;4.65;90.22;102059.50;4987935;28;20092;-66
2022/12/02 03:33:41;;;;;;;16.85;6.80;;;;;;;4.68;90.20;102060.81;4986706;28;20551;-66
2022/12/02 03:36:08;;;;;;;20.98;7.05;;;;;;;4.71;90.19;102058.38;5004681;28;20084;-66
2022/12/02 03:38:34;;;;;;;16.23;6.63;;;;;;;4.71;89.98;102054.91;4987070;28;20038;-67
2022/12/02 03:41:02;;;;;;;19.63;6.70;;;;;;;4.81;89.37;102058.31;4988432;28;20400;-66
2022/12/02 03:43:27;;;;;;;17.83;6.00;;;;;;;4.75;89.67;102053.28;4987941;28;20042;-66
2022/12/02 03:45:55;;;;;;;23.75;7.90;;;;;;;4.70;89.18;102056.81;4995481;28;20376;-66
2022/12/02 03:48:21;;;;;;;14.80;5.53;;;;;;;4.59;90.08;102053.41;4969088;28;20050;-66
2022/12/02 03:50:52;;;;;;;22.15;6.85;;;;;;;4.61;90.44;102047.81;4988779;28;20458;-66
2022/12/02 03:53:18;;;;;;;15.13;5.67;;;;;;;4.66;90.46;102049.63;4989912;28;20049;-66
2022/12/02 03:55:44;;;;;;;16.98;6.28;;;;;;;4.68;89.91;102047.50;5005468;28;20312;-67
2022/12/02 03:58:09;;;;;;;13.02;5.72;;;;;;;4.56;90.52;102051.31;5003812;28;20031;-67
2022/12/02 04:00:36;;;;;;;11.27;5.63;;;;;;;4.65;91.11;102048.84;4990628;28;20027;-66
2022/12/02 04:03:01;;;;;;;10.95;5.18;;;;;;;4.69;91.17;102051.72;4989745;28;20065;-66
2022/12/02 04:05:27;;;;;;;19.30;6.18;;;;;;;4.66;90.81;102047.78;4974258;28;20073;-68
2022/12/02 04:07:52;;;;;;;13.63;6.28;;;;;;;4.70;91.03;102045.34;4984851;28;20046;-66
2022/12/02 04:10:18;;;;;;;16.75;6.00;;;;;;;4.83;90.58;102040.13;4987890;28;20022;-67
2022/12/02 04:12:43;;;;;;;15.57;6.97;;;;;;;4.65;90.18;102050.69;4982198;28;20034;-67
2022/12/02 04:15:09;;;;;;;14.27;6.20;;;;;;;4.61;91.04;102050.47;4989538;28;20045;-67
2022/12/02 04:17:35;;;;;;;14.52;6.43;;;;;;;4.69;90.76;102041.88;4988644;28;20046;-67
2022/12/02 04:20:01;;;;;;;19.23;7.07;;;;;;;4.61;90.23;102036.34;4988538;28;20026;-66
2022/12/02 04:22:26;;;;;;;18.00;6.85;;;;;;;4.59;90.91;102041.94;4986941;28;20038;-67
2022/12/02 04:24:52;;;;;;;21.27;6.35;;;;;;;4.66;91.14;102034.44;4976123;28;20084;-67
2022/12/02 04:27:17;;;;;;;21.02;7.60;;;;;;;4.63;90.62;102048.31;4989434;28;20034;-67
2022/12/02 04:29:43;;;;;;;15.95;6.00;;;;;;;4.58;91.34;102040.38;4989002;28;20061;-67
2022/12/02 04:32:08;;;;;;;17.65;6.75;;;;;;;4.66;91.52;102047.78;4989006;28;20033;-68
2022/12/02 04:34:33;;;;;;;20.33;5.40;;;;;;;4.67;91.27;102036.00;5008679;28;20500;-66
2022/12/02 04:36:59;;;;;;;17.17;6.70;;;;;;;4.59;91.73;102033.94;5002299;28;20030;-66
2022/12/02 04:39:24;;;;;;;24.02;7.10;;;;;;;4.65;92.02;102035.50;4988827;28;20141;-67
2022/12/02 04:41:50;;;;;;;15.95;6.45;;;;;;;4.69;91.63;102033.06;4990863;28;20041;-66
2022/12/02 04:44:15;;;;;;;10.68;4.90;;;;;;;4.70;91.33;102024.78;4996729;28;20026;-66
2022/12/02 04:46:40;;;;;;;24.10;8.20;;;;;;;4.59;91.87;102032.09;4997276;28;20494;-66
2022/12/02 04:49:06;;;;;;;12.43;6.40;;;;;;;4.58;91.85;102033.19;4991369;28;20026;-66
2022/12/02 04:51:31;;;;;;;17.10;7.05;;;;;;;4.56;92.70;102039.84;4991504;28;20030;-66
2022/12/02 04:53:57;;;;;;;20.38;5.38;;;;;;;4.57;92.83;102030.75;4995192;28;20030;-66
2022/12/02 04:56:23;;;;;;;14.70;5.65;;;;;;;4.57;92.38;102036.09;4995171;28;20080;-66
2022/12/02 04:58:48;;;;;;;12.65;5.97;;;;;;;4.64;92.68;102031.25;4994547;28;20042;-66
2022/12/02 05:01:14;;;;;;;16.40;5.75;;;;;;;4.61;92.36;102036.34;4994209;28;20117;-66
2022/12/02 05:03:39;;;;;;;16.45;6.15;;;;;;;4.50;92.82;102039.09;4996098;28;20030;-66
2022/12/02 05:06:04;;;;;;;18.00;6.80;;;;;;;4.57;92.47;102036.09;5010240;28;20041;-66
2022/12/02 05:08:30;;;;;;;12.60;6.10;;;;;;;4.62;92.22;102037.94;5006766;28;20042;-67
2022/12/02 05:10:55;;;;;;;14.68;5.53;;;;;;;4.64;92.14;102035.78;4995358;28;20022;-67
2022/12/02 05:13:21;;;;;;;16.33;6.32;;;;;;;4.64;92.44;102039.25;4994575;28;20034;-67
2022/12/02 05:15:46;;;;;;;9.73;5.25;;;;;;;4.62;92.15;102028.06;4993985;28;20058;-66
2022/12/02 05:18:12;;;;;;;21.23;6.65;;;;;;;4.65;92.78;102043.50;4994277;28;20045;-67
2022/12/02 05:20:37;;;;;;;10.00;4.28;;;;;;;4.66;92.22;102041.63;5011191;28;20406;-66
2022/12/02 05:23:03;;;;;;;18.65;6.93;;;;;;;4.63;92.15;102040.31;5009571;28;20026;-66
2022/12/02 05:25:28;;;;;;;12.88;5.70;;;;;;;4.59;92.38;102050.75;5009612;28;20096;-66
2022/12/02 05:27:54;;;;;;;11.55;5.35;;;;;;;4.65;92.33;102048.03;4995284;28;20057;-67
2022/12/02 05:30:21;;;;;;;9.30;4.43;;;;;;;4.68;91.61;102037.63;4994306;28;20026;-66
2022/12/02 05:32:46;;;;;;;15.98;5.43;;;;;;;4.68;92.28;102042.16;4994861;28;21480;-67
2022/12/02 05:35:12;;;;;;;14.30;5.65;;;;;;;4.70;91.16;102046.13;4995558;28;20056;-66
2022/12/02 05:37:37;;;;;;;13.10;6.00;;;;;;;4.72;91.31;102048.53;4991427;28;20361;-66
2022/12/02 05:40:04;;;;;;;13.13;4.82;;;;;;;4.70;91.24;102050.66;4994074;28;20096;-66
2022/12/02 05:42:33;;;;;;;12.20;5.68;;;;;;;4.70;91.55;102050.66;5006011;28;20038;-67
2022/12/02 05:45:00;;;;;;;16.90;6.00;;;;;;;4.50;91.71;102051.63;4995246;28;20030;-66
2022/12/02 05:47:31;;;;;;;14.55;5.93;;;;;;;4.51;92.40;102047.88;4994822;28;20066;-67
2022/12/02 05:49:58;;;;;;;13.98;5.55;;;;;;;4.47;92.50;102042.31;4991755;28;20033;-66
2022/12/02 05:52:27;;;;;;;19.45;5.82;;;;;;;4.56;92.40;102045.19;4995137;28;20038;-66
2022/12/02 05:54:59;;;;;;;10.75;5.13;;;;;;;4.61;92.46;102044.34;4988462;28;20034;-66
2022/12/02 05:57:28;;;;;;;15.77;5.55;;;;;;;4.58;92.59;102043.03;4989394;28;20435;-67
2022/12/02 06:00:11;;;;;;;18.88;6.65;;;;;;;4.57;92.86;102044.91;4985102;28;20041;-66
2022/12/02 06:02:44;;;;;;;13.73;4.88;;;;;;;4.54;92.79;102058.00;4989986;28;20034;-66
2022/12/02 06:05:25;;;;;;;11.77;4.68;;;;;;;4.65;92.75;102059.50;4989028;28;20058;-66
2022/12/02 06:08:00;;;;;;;10.18;5.15;;;;;;;4.61;92.62;102052.38;5004709;28;20490;-66
2022/12/02 06:10:31;;;;;;;13.23;6.15;;;;;;;4.55;92.64;102056.91;4988074;28;20080;-67
2022/12/02 06:13:11;;;;;;;15.95;5.55;;;;;;;4.63;92.61;102060.88;5004012;28;20398;-67
2022/12/02 06:15:37;;;;;;;10.70;5.78;;;;;;;4.59;92.69;102060.63;5004443;28;20057;-67
2022/12/02 06:18:13;;;;;;;9.63;4.88;;;;;;;4.52;93.30;102047.63;4989399;28;20038;-67
2022/12/02 06:20:39;;;;;;;13.27;5.05;;;;;;;4.58;93.31;102054.50;5004377;28;20037;-67
2022/12/02 06:23:11;;;;;;;9.50;4.32;;;;;;;4.55;93.40;102049.72;4981788;28;20034;-67
2022/12/02 06:25:36;;;;;;;12.13;5.88;;;;;;;4.65;93.03;102054.16;4989684;28;20410;-66
2022/12/02 06:28:30;;;;;;;10.02;4.15;;;;;;;4.63;92.31;102056.31;4987648;28;20041;-67
2022/12/02 06:31:08;;;;;;;13.93;5.43;;;;;;;4.58;92.77;102054.50;4985908;28;20894;-67
2022/12/02 06:33:36;;;;;;;7.63;4.90;;;;;;;4.71;92.25;102055.72;4988109;23;20869;-67
2022/12/02 06:36:24;;;;;;;10.10;5.05;;;;;;;4.67;92.50;102059.22;4987004;28;20042;-67
2022/12/02 06:38:54;;;;;;;16.20;5.18;;;;;;;4.71;92.16;102052.25;4908597;29;20058;-66
2022/12/02 06:41:21;;;;;;;15.95;6.00;;;;;;;4.61;92.11;102055.03;4907232;29;20044;-68
2022/12/02 06:45:03;;;;;;;14.05;5.03;;;;;;;4.66;92.33;102054.97;4897655;29;20459;-67
2022/12/02 06:46:36;;;;;;;14.00;4.32;;;;;;;4.75;91.87;102053.28;4885979;29;20136;-66
2022/12/02 06:49:15;;;;;;;11.18;5.72;;;;;;;4.74;91.52;102062.38;4891061;29;20080;-66
2022/12/02 06:51:41;;;;;;;11.55;4.28;;;;;;;4.77;91.91;102073.28;4904030;29;20043;-66
2022/12/02 06:54:18;;;;;;;20.70;7.10;;;;;;;4.75;91.54;102063.94;4904706;29;20037;-67
2022/12/02 06:56:43;;;;;;;16.42;6.03;;;;;;;4.64;91.94;102068.59;4904056;29;20524;-67
2022/12/02 06:59:11;;;;;;;9.60;5.03;;;;;;;4.63;92.65;102074.22;4890731;29;20069;-67
2022/12/02 07:01:43;;;;;;;14.40;5.75;;;;;;;4.64;92.24;102068.59;4906647;29;20055;-67
2022/12/02 07:04:08;;;;;;;14.75;5.53;;;;;;;4.57;92.85;102073.44;4906877;29;20063;-67
2022/12/02 07:06:39;;;;;;;15.48;5.97;;;;;;;4.57;93.10;102074.25;4907783;29;20031;-67
2022/12/02 07:09:13;;;;;;;16.33;6.32;;;;;;;4.65;92.63;102064.84;4904819;29;20597;-68
2022/12/02 07:11:50;;;;;;;12.38;5.60;;;;;;;4.62;92.99;102068.09;4893919;29;20108;-67
2022/12/02 07:14:43;;;;;;;12.60;4.70;;;;;;;4.61;92.63;102068.38;4906743;29;20047;-67
2022/12/02 07:17:28;;;;;;;14.48;5.90;;;;;;;4.58;92.82;102067.84;4968751;28;20035;-67
2022/12/02 07:20:00;;;;;;;14.45;4.53;;;;;;;4.70;93.09;102072.00;4982630;28;20518;-67
2022/12/02 07:22:36;;;;;;;11.85;6.00;;;;;;;4.71;92.27;102069.06;4981909;28;20126;-67
2022/12/02 07:25:07;;;;;;;14.43;5.18;;;;;;;4.69;92.80;102076.53;4978574;28;21006;-66
2022/12/02 07:27:34;;;;;;;;;;;;;;;4.67;93.03;102078.69;4976072;28;20031;-68
2022/12/02 07:30:00;;;;;;;19.00;6.30;;;;;;;4.68;92.81;102072.31;4978648;28;19913;-67
2022/12/02 07:32:26;;;;;;;12.38;5.97;;;;;;;4.61;92.74;102069.13;4982968;28;20042;-66
2022/12/02 07:34:52;;;;;;;11.38;5.57;;;;;;;4.69;92.71;102070.41;4993364;28;20049;-66
2022/12/02 07:37:17;;;;;;;16.05;6.53;;;;;;;4.71;92.69;102069.06;4977863;28;20058;-67
2022/12/02 07:39:46;;;;;;;15.73;4.88;;;;;;;4.64;92.68;102073.94;4980875;28;20054;-67
2022/12/02 07:42:13;;;;;;;14.63;6.15;;;;;;;4.67;93.62;102069.88;4984398;28;20137;-67
2022/12/02 07:44:39;;;;;;;13.20;5.03;;;;;;;4.72;92.62;102070.66;4980770;28;20150;-68
2022/12/02 07:47:05;;;;;;;10.98;4.72;;;;;;;4.74;92.92;102076.53;4983348;28;20380;-67
2022/12/02 07:49:31;;;;;;;16.88;5.53;;;;;;;4.70;92.99;102072.81;4976703;28;20041;-67
2022/12/02 07:52:17;;;;;;;14.10;5.68;;;;;;;4.73;92.83;102082.91;4979951;28;20084;-68
2022/12/02 07:54:43;;;;;;;14.23;6.10;;;;;;;4.71;93.04;102085.06;4923624;29;20047;-66
2022/12/02 07:57:08;;;;;;;13.00;5.53;;;;;;;4.79;92.68;102075.66;4935718;28;20136;-67
2022/12/02 07:59:33;;;;;;;13.10;5.00;;;;;;;4.79;92.59;102079.13;4938500;29;20051;-67
2022/12/02 08:01:59;;;;;;;18.48;5.90;;;;;;;4.80;92.47;102080.72;4939336;28;20126;-66
2022/12/02 08:04:24;;;;;;;14.52;5.80;;;;;;;4.71;93.09;102081.59;4917500;29;20435;-67
2022/12/02 08:06:50;;;;;;;23.88;6.60;;;;;;;4.78;92.68;102082.09;4933716;29;20168;-66
2022/12/02 08:09:15;;;;;;;17.33;6.72;;;;;;;4.82;92.13;102081.22;4932877;29;20039;-66
2022/12/02 08:11:41;;;;;;;19.40;7.53;;;;;;;4.67;92.24;102083.22;4937178;29;20035;-66
2022/12/02 08:14:06;;;;;;;22.77;6.45;;;;;;;4.65;92.97;102078.19;4936502;29;20424;-67
2022/12/02 08:16:34;;;;;;;14.82;5.57;;;;;;;4.81;92.50;102074.31;4936221;28;20035;-66
2022/12/02 08:19:00;;;;;;;11.90;5.07;;;;;;;4.80;92.33;102074.59;4933648;28;20071;-66
2022/12/02 08:21:26;;;;;;;19.73;7.25;;;;;;;4.86;92.57;102078.81;4940211;29;20412;-66
2022/12/02 08:23:52;;;;;;;17.70;6.35;;;;;;;4.86;92.12;102071.59;4926006;29;20535;-66
2022/12/02 08:26:17;;;;;;;19.55;6.28;;;;;;;4.85;92.45;102079.88;4906418;29;20043;-67
2022/12/02 08:28:43;;;;;;;15.27;6.03;;;;;;;4.87;92.70;102085.72;4921668;29;20215;-66
2022/12/02 08:31:08;;;;;;;19.25;6.00;;;;;;;4.93;92.55;102082.75;4951223;28;20434;-66
2022/12/02 08:33:34;;;;;;;14.05;6.55;;;;;;;4.76;92.83;102078.91;4983634;28;20044;-66
2022/12/02 08:35:59;;;;;;;15.25;6.43;;;;;;;4.87;93.04;102089.19;4981377;28;20062;-67
2022/12/02 08:38:25;;;;;;;14.43;6.32;;;;;;;4.92;92.40;102086.47;4994782;28;20026;-66
2022/12/02 08:40:50;;;;;;;16.00;5.88;;;;;;;4.92;92.07;102089.16;4979672;28;20030;-67
2022/12/02 08:43:16;;;;;;;19.55;6.30;;;;;;;4.88;92.26;102088.13;4978345;28;20156;-67
2022/12/02 08:45:42;;;;;;;15.80;6.82;;;;;;;4.87;92.59;102089.19;4980261;28;20035;-67
2022/12/02 08:48:07;;;;;;;19.85;6.25;;;;;;;4.91;92.77;102084.09;4983403;28;20401;-66
2022/12/02 08:50:33;;;;;;;13.27;6.85;;;;;;;4.94;92.38;102087.00;4984109;28;20518;-67
2022/12/02 08:52:58;;;;;;;14.88;6.00;;;;;;;4.85;92.57;102099.34;4982485;28;20042;-67
2022/12/02 08:55:25;;;;;;;14.77;4.93;;;;;;;4.83;93.02;102093.50;4994146;28;20030;-66
2022/12/02 08:57:50;;;;;;;17.65;6.28;;;;;;;4.91;92.62;102092.91;4972025;28;20027;-66
2022/12/02 09:00:16;;;;;;;17.80;7.35;;;;;;;4.98;92.50;102088.03;4976551;28;21990;-67
2022/12/02 09:02:41;;;;;;;17.85;6.85;;;;;;;5.01;92.40;102100.81;4978487;28;20054;-67
2022/12/02 09:05:07;;;;;;;18.10;5.50;;;;;;;5.05;92.50;102107.16;4977891;28;20026;-66
2022/12/02 09:07:32;;;;;;;16.85;6.38;;;;;;;5.04;92.18;102116.25;4979530;28;20042;-66
2022/12/02 09:09:58;;;;;;;16.33;5.60;;;;;;;5.07;92.24;102107.69;4973200;28;20038;-67
2022/12/02 09:12:24;;;;;;;16.70;6.40;;;;;;;5.02;91.97;102104.25;4982899;28;20066;-66
2022/12/02 09:14:50;;;;;;;17.83;6.22;;;;;;;5.00;92.33;102103.75;4980039;28;20038;-66
2022/12/02 09:17:15;;;;;;;17.80;7.22;;;;;;;4.95;92.53;102111.81;4972299;28;20034;-66
2022/12/02 09:19:41;;;;;;;16.50;6.30;;;;;;;4.90;92.69;102109.97;4969532;28;20047;-68
2022/12/02 09:22:06;;;;;;;10.88;5.53;;;;;;;4.94;92.53;102111.00;4980785;28;20396;-67
2022/12/02 09:24:32;;;;;;;20.45;8.35;;;;;;;4.82;92.53;102107.91;4973366;28;20042;-66
2022/12/02 09:26:57;;;;;;;14.15;6.25;;;;;;;4.70;93.04;102104.84;4971241;28;20038;-66
2022/12/02 09:29:23;;;;;;;17.83;6.93;;;;;;;4.84;93.44;102105.75;4974711;28;20773;-66
2022/12/02 09:31:48;;;;;;;14.98;5.57;;;;;;;4.93;93.00;102114.78;4993976;28;20042;-67
2022/12/02 09:34:14;;;;;;;17.98;6.53;;;;;;;4.89;92.13;102119.06;4976574;28;20042;-66
2022/12/02 09:36:42;;;;;;;13.85;6.03;;;;;;;4.95;92.40;102119.81;4983978;28;20048;-67
2022/12/02 09:39:07;;;;;;;21.38;6.70;;;;;;;4.93;92.71;102114.78;4983691;28;20574;-67
2022/12/02 09:41:33;;;;;;;18.17;6.68;;;;;;;5.05;93.01;102117.84;4980620;28;20117;-67
2022/12/02 09:43:59;;;;;;;20.70;5.95;;;;;;;5.09;92.14;102123.44;4983346;28;20057;-67
2022/12/02 09:46:24;;;;;;;17.27;6.45;;;;;;;5.16;92.18;102124.69;4983080;28;20129;-66
2022/12/02 09:48:50;;;;;;;23.02;6.00;;;;;;;5.19;92.10;102128.66;4984004;28;20027;-66
2022/12/02 09:51:15;;;;;;;20.50;6.55;;;;;;;5.07;92.09;102126.38;4980072;28;20019;-66
2022/12/02 09:53:42;;;;;;;13.60;5.63;;;;;;;4.97;92.40;102118.47;4963499;28;20104;-66
2022/12/02 09:56:15;;;;;;;13.68;6.63;;;;;;;4.94;93.02;102124.34;4981616;28;20050;-67
2022/12/02 09:58:40;;;;;;;15.77;5.32;;;;;;;5.07;92.89;102121.03;4978881;28;20033;-66
2022/12/02 10:01:10;;;;;;;21.27;5.30;;;;;;;5.07;91.94;102115.69;4984416;28;20395;-67
2022/12/02 10:03:35;;;;;;;17.27;6.13;;;;;;;5.04;92.40;102124.28;4980552;28;20057;-67
2022/12/02 10:06:06;;;;;;;14.82;6.18;;;;;;;4.87;92.18;102121.22;4959654;28;20159;-66
2022/12/02 10:08:32;;;;;;;14.10;4.50;;;;;;;4.92;93.13;102121.16;4983871;28;20035;-66
2022/12/02 10:10:58;;;;;;;21.05;6.78;;;;;;;4.83;91.66;102122.06;4961902;28;20112;-66
2022/12/02 10:13:24;;;;;;;14.32;4.78;;;;;;;4.76;92.77;102125.06;4987149;28;20045;-67
2022/12/02 10:15:50;;;;;;;18.90;6.97;;;;;;;4.87;93.19;102125.75;4983890;28;20046;-66
2022/12/02 10:18:19;;;;;;;16.77;6.35;;;;;;;4.96;92.62;102118.72;4986126;28;20406;-66
2022/12/02 10:20:45;;;;;;;19.92;6.65;;;;;;;4.98;92.86;102116.56;4982112;28;20076;-67
2022/12/02 10:23:18;;;;;;;14.63;6.15;;;;;;;5.05;93.42;102115.16;4988209;28;20042;-66
2022/12/02 10:25:53;;;;;;;16.83;7.72;;;;;;;5.06;93.00;102113.31;4996564;28;20165;-66
2022/12/02 10:28:28;;;;;;;12.73;5.55;;;;;;;5.04;92.64;102118.13;4986634;28;20038;-67
2022/12/02 10:30:57;;;;;;;17.92;6.38;;;;;;;4.95;92.77;102115.28;4986429;28;20033;-66
2022/12/02 10:33:28;;;;;;;15.55;7.03;;;;;;;5.11;92.54;102111.38;4983550;28;20035;-67
2022/12/02 10:35:55;;;;;;;14.63;6.95;;;;;;;5.06;92.43;102100.75;4988066;28;20057;-66
2022/12/02 10:38:30;;;;;;;21.15;7.35;;;;;;;5.12;92.01;102110.31;4962129;28;20042;-66
2022/12/02 10:41:14;;;;;;;12.10;4.80;;;;;;;5.22;92.42;102104.09;4975725;28;20549;-67
2022/12/02 10:44:00;;;;;;;22.70;5.55;;;;;;;5.14;91.67;102113.50;4981172;28;20041;-66
2022/12/02 10:46:27;;;;;;;20.55;7.05;;;;;;;5.16;91.94;102105.22;4979827;28;20049;-67
2022/12/02 10:48:52;;;;;;;25.05;6.40;;;;;;;5.23;92.43;102103.78;4975446;28;20034;-66
2022/12/02 10:51:20;;;;;;;14.65;7.22;;;;;;;5.24;92.57;102097.38;4979762;28;20041;-67
2022/12/02 10:53:51;;;;;;;15.90;5.78;;;;;;;5.05;91.75;102095.72;4981976;28;20037;-66
2022/12/02 10:56:24;;;;;;;21.95;6.85;;;;;;;5.16;91.72;102102.53;4977775;28;20046;-66
2022/12/02 10:58:51;;;;;;;20.52;6.38;;;;;;;5.14;92.33;102102.81;4984093;28;20050;-67
2022/12/02 11:01:19;;;;;;;26.52;6.90;;;;;;;5.12;91.74;102096.97;4976099;28;20041;-66
2022/12/02 11:03:45;;;;;;;17.00;6.30;;;;;;;5.22;91.87;102093.41;4974801;28;20027;-66
2022/12/02 11:06:18;;;;;;;15.52;6.45;;;;;;;5.20;92.20;102088.34;4984295;28;20091;-67
2022/12/02 11:08:44;;;;;;;;;;;;;;;5.21;91.69;102089.13;4987156;28;20126;-66
2022/12/02 11:11:14;;;;;;;19.40;5.60;;;;;;;5.29;92.01;102094.66;4994689;28;20720;-66
2022/12/02 11:13:55;;;;;;;17.63;6.00;;;;;;;5.25;91.67;102090.16;4980307;28;20042;-66
2022/12/02 11:16:27;;;;;;;;;;;;;;;5.15;91.61;102095.63;4983984;28;20589;-66
2022/12/02 11:19:23;;;;;;;15.65;5.53;;;;;;;5.19;92.61;102091.28;4983878;28;20410;-67
2022/12/02 11:21:49;;;;;;;17.75;6.20;;;;;;;5.32;91.43;102086.06;4995228;28;20702;-66
2022/12/02 11:24:26;;;;;;;13.70;6.28;;;;;;;5.30;91.65;102080.22;4979815;28;20046;-67
2022/12/02 11:26:58;;;;;;;14.27;5.05;;;;;;;5.30;91.28;102079.44;4978927;28;20108;-66
2022/12/02 11:29:23;;;;;;;16.98;5.80;;;;;;;5.28;92.08;102081.59;4976207;28;20049;-66
2022/12/02 11:32:37;;;;;;;14.82;5.18;;;;;;;5.26;91.96;102075.75;4976106;28;20457;-66
2022/12/02 11:35:12;;;;;;;14.27;6.35;;;;;;;5.22;92.15;102072.84;4972645;28;20065;-67